createdAt,value
2022-12-17T00:01:42.678Z,53.95
2022-12-17T00:07:02.996Z,55.95
2022-12-17T00:12:23.161Z,49.60
2022-12-17T00:17:43.530Z,53.95
2022-12-17T00:23:03.765Z,45.65
2022-12-17T00:28:28.759Z,45.58
2022-12-17T00:33:49.038Z,39.60
2022-12-17T00:39:09.445Z,46.70
2022-12-17T00:44:30.146Z,49.08
2022-12-17T00:49:50.335Z,47.72
2022-12-17T00:55:10.516Z,49.25
2022-12-17T01:00:31.340Z,54.50
2022-12-17T01:05:52.688Z,52.50
2022-12-17T01:11:19.185Z,56.08
2022-12-17T01:16:39.566Z,43.08
2022-12-17T01:22:01.668Z,52.03
2022-12-17T01:27:21.940Z,49.40
2022-12-17T01:32:44.127Z,49.25
2022-12-17T01:38:04.438Z,51.50
2022-12-17T01:43:30.424Z,52.92
2022-12-17T01:49:03.302Z,56.92
2022-12-17T01:54:24.714Z,44.25
2022-12-17T01:59:57.684Z,54.05
2022-12-17T02:05:17.944Z,45.97
2022-12-17T02:10:48.511Z,49.47
2022-12-17T02:16:44.670Z,54.33
2022-12-17T02:22:13.469Z,57.70
2022-12-17T02:27:34.841Z,52.92
2022-12-17T02:33:00.342Z,49.38
2022-12-17T02:38:43.148Z,44.20
2022-12-17T02:44:04.529Z,50.45
2022-12-17T02:49:26.181Z,56.42
2022-12-17T02:54:51.813Z,49.95
2022-12-17T03:00:13.213Z,47.83
2022-12-17T03:05:45.120Z,46.53
2022-12-17T03:11:06.190Z,53.50
2022-12-17T03:16:32.783Z,50.33
2022-12-17T03:21:57.415Z,46.38
2022-12-17T03:27:17.575Z,50.30
2022-12-17T03:32:37.811Z,51.50
2022-12-17T03:37:58.052Z,47.75
2022-12-17T03:43:25.780Z,43.55
2022-12-17T03:48:46.024Z,54.65
2022-12-17T03:54:06.289Z,52.05
2022-12-17T03:59:26.515Z,47.28
2022-12-17T04:04:46.887Z,52.53
2022-12-17T04:10:07.100Z,43.20
2022-12-17T04:15:27.783Z,50.53
2022-12-17T04:20:48.026Z,52.38
2022-12-17T04:26:08.343Z,46.53
2022-12-17T04:31:28.716Z,51.42
2022-12-17T04:36:48.955Z,53.10
2022-12-17T04:42:09.184Z,48.88
2022-12-17T04:47:29.410Z,41.13
2022-12-17T04:52:49.690Z,52.60
2022-12-17T04:58:09.922Z,46.28
2022-12-17T05:03:35.195Z,45.72
2022-12-17T05:08:55.970Z,82.82
2022-12-17T05:14:16.200Z,44.28
2022-12-17T05:19:36.631Z,39.13
2022-12-17T05:24:57.345Z,43.17
2022-12-17T05:30:17.668Z,43.80
2022-12-17T05:35:37.933Z,44.90
2022-12-17T05:40:58.153Z,42.00
2022-12-17T05:46:18.886Z,52.90
2022-12-17T05:51:40.275Z,43.00
2022-12-17T05:57:00.478Z,42.40
2022-12-17T06:02:20.687Z,43.78
2022-12-17T06:07:41.040Z,43.35
2022-12-17T06:13:01.459Z,42.58
2022-12-17T06:18:21.758Z,48.90
2022-12-17T06:23:41.982Z,53.00
2022-12-17T06:29:02.943Z,54.13
2022-12-17T06:34:23.064Z,49.78
2022-12-17T06:39:43.222Z,52.75
2022-12-17T06:45:03.523Z,50.72
2022-12-17T06:50:24.734Z,50.88
2022-12-17T06:55:45.093Z,53.90
2022-12-17T07:01:05.827Z,52.50
2022-12-17T07:06:27.243Z,50.40
2022-12-17T07:11:47.776Z,56.33
2022-12-17T07:17:08.083Z,54.08
2022-12-17T07:22:28.524Z,50.72
2022-12-17T07:27:48.856Z,59.97
2022-12-17T07:33:26.089Z,60.17
2022-12-17T07:38:49.426Z,59.97
2022-12-17T07:44:09.734Z,64.88
2022-12-17T07:49:30.698Z,70.57
2022-12-17T07:54:51.107Z,60.40
2022-12-17T08:00:11.334Z,53.55
2022-12-17T08:05:31.444Z,57.75
2022-12-17T08:10:51.499Z,64.30
2022-12-17T08:16:13.057Z,68.28
2022-12-17T08:21:33.763Z,52.97
2022-12-17T08:26:54.082Z,58.25
2022-12-17T08:32:14.335Z,80.20
2022-12-17T08:37:34.715Z,60.15
2022-12-17T08:42:55.268Z,73.97
2022-12-17T08:48:26.367Z,70.22
2022-12-17T08:53:46.453Z,54.08
2022-12-17T08:59:07.053Z,57.03
2022-12-17T09:04:27.422Z,61.70
2022-12-17T09:09:47.695Z,52.58
2022-12-17T09:15:07.926Z,60.63
2022-12-17T09:20:29.561Z,50.10
2022-12-17T09:25:53.678Z,54.15
2022-12-17T09:31:20.726Z,54.38
2022-12-17T09:36:41.168Z,59.15
2022-12-17T09:42:27.375Z,53.20
2022-12-17T09:48:15.329Z,40.33
2022-12-17T09:54:08.690Z,46.50
2022-12-17T09:59:39.029Z,41.20
2022-12-17T10:05:02.968Z,51.15
2022-12-17T10:10:38.447Z,40.63
2022-12-17T10:16:01.688Z,40.00
2022-12-17T10:21:25.406Z,42.25
2022-12-17T10:26:49.719Z,53.10
2022-12-17T10:32:10.683Z,44.63
2022-12-17T10:37:39.127Z,51.40
2022-12-17T10:42:59.405Z,40.25
2022-12-17T10:48:20.067Z,50.40
2022-12-17T10:53:43.892Z,42.58
2022-12-17T10:59:12.825Z,40.78
2022-12-17T11:04:42.361Z,45.30
2022-12-17T11:10:11.707Z,41.90
2022-12-17T11:15:51.341Z,52.92
2022-12-17T11:21:38.915Z,44.20
2022-12-17T11:27:02.870Z,41.08
2022-12-17T11:32:32.575Z,48.10
2022-12-17T11:38:16.173Z,47.97
2022-12-17T11:44:15.559Z,52.65
2022-12-17T11:50:04.443Z,51.20
2022-12-17T12:00:55.327Z,52.78
2022-12-17T12:06:21.587Z,61.50
2022-12-17T12:12:04.502Z,50.85
2022-12-17T12:17:37.017Z,49.97
2022-12-17T12:23:11.940Z,51.88
2022-12-17T12:28:41.386Z,53.72
2022-12-17T12:34:28.088Z,54.22
2022-12-17T12:40:00.083Z,41.50
2022-12-17T12:45:26.972Z,54.90
2022-12-17T12:51:19.408Z,42.45
2022-12-17T12:56:54.545Z,59.80
2022-12-17T13:02:14.751Z,50.90
2022-12-17T13:07:28.206Z,48.58
2022-12-17T13:12:44.778Z,44.08
2022-12-17T13:18:16.339Z,33.75
2022-12-17T13:23:39.186Z,46.15
2022-12-17T13:28:42.943Z,47.05
2022-12-17T13:33:54.840Z,40.17
2022-12-17T13:39:12.273Z,43.33
2022-12-17T13:44:29.590Z,48.15
2022-12-17T13:49:32.138Z,37.73
2022-12-17T13:54:34.757Z,37.97
2022-12-17T13:59:38.079Z,40.05
2022-12-17T14:04:40.995Z,43.00
2022-12-17T14:09:44.108Z,45.65
2022-12-17T14:14:56.213Z,47.58
2022-12-17T14:20:22.855Z,41.97
2022-12-17T14:25:34.231Z,37.65
2022-12-17T14:30:42.921Z,39.35
2022-12-17T14:35:55.188Z,43.75
2022-12-17T14:41:31.628Z,42.22
2022-12-17T14:46:35.066Z,51.40
2022-12-17T14:51:42.835Z,43.90
2022-12-17T15:01:55.637Z,36.95
2022-12-17T15:06:59.209Z,37.60
2022-12-17T15:12:01.015Z,42.53
2022-12-17T15:17:02.866Z,34.65
2022-12-17T15:22:05.449Z,38.90
2022-12-17T15:27:08.617Z,33.33
2022-12-17T15:32:19.547Z,37.63
2022-12-17T15:37:25.632Z,43.63
2022-12-17T15:42:46.394Z,43.05
2022-12-17T15:47:48.473Z,43.80
2022-12-17T15:52:50.405Z,37.38
2022-12-17T15:57:52.337Z,32.33
2022-12-17T16:02:54.344Z,44.95
2022-12-17T16:07:59.273Z,43.85
2022-12-17T16:13:01.174Z,35.17
2022-12-17T16:18:03.265Z,41.38
2022-12-17T16:23:05.263Z,36.55
2022-12-17T16:28:07.098Z,46.75
2022-12-17T16:33:08.931Z,47.95
2022-12-17T16:38:10.812Z,51.80
2022-12-17T16:43:12.614Z,54.15
2022-12-17T16:48:15.050Z,54.60
2022-12-17T16:53:18.456Z,48.65
2022-12-17T16:58:20.268Z,31.38
2022-12-17T17:03:22.312Z,27.48
2022-12-17T17:08:24.376Z,30.58
2022-12-17T17:13:26.142Z,27.02
2022-12-17T17:18:28.139Z,36.72
2022-12-17T17:23:30.897Z,32.88
2022-12-17T17:28:32.938Z,39.50
2022-12-17T17:33:37.194Z,35.63
2022-12-17T17:38:42.380Z,38.75
2022-12-17T17:43:44.808Z,40.50
2022-12-17T17:48:49.821Z,30.55
2022-12-17T17:53:55.679Z,41.90
2022-12-17T17:59:05.485Z,35.67
2022-12-17T18:04:12.108Z,34.85
2022-12-17T18:09:14.748Z,38.90
2022-12-17T18:14:18.207Z,31.80
2022-12-17T18:19:22.025Z,33.33
2022-12-17T18:24:23.830Z,63.00
2022-12-17T18:29:28.913Z,62.97
2022-12-17T18:34:30.953Z,49.08
2022-12-17T18:39:33.355Z,52.55
2022-12-17T18:44:38.767Z,42.38
2022-12-17T18:49:41.921Z,37.23
2022-12-17T18:54:43.654Z,39.63
2022-12-17T18:59:45.814Z,33.38
2022-12-17T19:04:47.655Z,31.63
2022-12-17T19:09:52.292Z,27.63
2022-12-17T19:14:54.110Z,32.08
2022-12-17T19:19:55.842Z,26.83
2022-12-17T19:24:57.597Z,41.97
2022-12-17T19:29:59.396Z,29.17
2022-12-17T19:35:01.310Z,34.92
2022-12-17T19:40:03.674Z,33.75
2022-12-17T19:45:06.681Z,34.03
2022-12-17T19:50:08.797Z,39.58
2022-12-17T19:55:10.636Z,30.60
2022-12-17T20:00:12.808Z,41.17
2022-12-17T20:05:14.573Z,38.17
2022-12-17T20:10:16.518Z,44.50
2022-12-17T20:15:18.358Z,48.55
2022-12-17T20:20:20.119Z,41.80
2022-12-17T20:25:25.009Z,43.28
2022-12-17T20:30:27.013Z,40.30
2022-12-17T20:35:28.789Z,41.40
2022-12-17T20:40:30.821Z,53.78
2022-12-17T20:45:32.631Z,39.08
2022-12-17T20:50:40.683Z,42.53
2022-12-17T20:55:42.679Z,46.15
2022-12-17T21:00:44.579Z,34.13
2022-12-17T21:05:46.545Z,39.88
2022-12-17T21:10:48.337Z,39.22
2022-12-17T21:15:54.742Z,37.60
2022-12-17T21:20:59.557Z,37.15
2022-12-17T21:26:04.323Z,33.45
2022-12-17T21:31:30.354Z,26.05
2022-12-17T21:36:34.124Z,31.10
2022-12-17T21:41:39.276Z,27.00
2022-12-17T21:46:50.002Z,26.48
2022-12-17T21:51:52.278Z,29.08
2022-12-17T21:56:54.196Z,27.98
2022-12-17T22:01:57.553Z,25.90
2022-12-17T22:07:17.407Z,24.92
2022-12-17T22:12:39.919Z,32.17
2022-12-17T22:17:43.057Z,30.20
2022-12-17T22:22:45.619Z,33.03
2022-12-17T22:27:47.709Z,35.40
2022-12-17T22:33:07.065Z,23.60
2022-12-17T22:41:57.834Z,29.07
2022-12-17T22:44:37.052Z,28.27
2022-12-17T22:49:00.262Z,25.08
2022-12-17T22:54:04.786Z,20.70
2022-12-17T22:59:07.697Z,24.30
2022-12-17T23:04:13.856Z,19.65
2022-12-17T23:09:19.417Z,23.45
2022-12-17T23:14:21.482Z,26.70
2022-12-17T23:19:23.223Z,27.70
2022-12-17T23:24:25.084Z,23.92
2022-12-17T23:29:27.074Z,28.55
2022-12-17T23:34:28.878Z,27.60
2022-12-17T23:39:30.855Z,22.55
2022-12-17T23:44:32.638Z,19.70
2022-12-17T23:49:34.454Z,19.70
2022-12-17T23:54:36.199Z,13.90
2022-12-17T23:59:37.989Z,19.17
